Time;durP1;ratioP1;P1;durP2;ratioP2;P2;SDS_P1;SDS_P2;PMS_P1;PMS_P2;Temp;Humidity;BMP_temperature;BMP_pressure;BME280_temperature;BME280_humidity;BME280_pressure;Samples;Min_cycle;Max_cycle;Signal;HPM_P1;HPM_P2
2021/04/21 00:00:15;;;;;;;7.43;5.03;;;13.70;56.10;;;;;;5011640;28;20032;-60
2021/04/21 00:02:45;;;;;;;11.52;5.28;;;13.70;56.40;;;;;;5012302;28;20042;-61
2021/04/21 00:05:11;;;;;;;12.45;5.50;;;13.70;56.50;;;;;;5012310;28;20469;-61
2021/04/21 00:07:37;;;;;;;10.38;5.60;;;13.60;56.50;;;;;;5011636;28;20485;-61
2021/04/21 00:10:08;;;;;;;9.02;4.55;;;13.60;56.40;;;;;;5012411;28;20040;-61
2021/04/21 00:12:35;;;;;;;8.63;4.95;;;13.60;56.50;;;;;;5012199;28;20057;-61
2021/04/21 00:15:00;;;;;;;7.22;4.78;;;13.60;56.50;;;;;;5012877;28;20033;-61
2021/04/21 00:17:27;;;;;;;8.93;5.63;;;13.50;56.50;;;;;;5016565;28;20033;-61
2021/04/21 00:19:55;;;;;;;8.55;5.60;;;13.40;56.60;;;;;;5016466;28;20048;-61
2021/04/21 00:22:23;;;;;;;11.05;5.25;;;13.50;56.70;;;;;;5014774;28;20036;-61
2021/04/21 00:24:51;;;;;;;8.93;6.07;;;13.40;56.80;;;;;;5015926;28;20041;-61
2021/04/21 00:27:24;;;;;;;9.77;5.32;;;13.40;56.70;;;;;;5015620;28;20044;-61
2021/04/21 00:29:53;;;;;;;11.27;5.78;;;13.30;56.70;;;;;;5015689;28;20478;-61
2021/04/21 00:32:23;;;;;;;11.00;4.68;;;13.30;56.80;;;;;;5014183;28;20045;-61
2021/04/21 00:34:49;;;;;;;5.32;3.65;;;13.30;57.10;;;;;;4997044;28;20030;-61
2021/04/21 00:37:16;;;;;;;6.78;3.92;;;13.20;57.20;;;;;;5015450;28;20025;-61
2021/04/21 00:39:44;;;;;;;7.70;4.55;;;13.20;57.40;;;;;;5015524;28;20481;-61
2021/04/21 00:42:16;;;;;;;10.60;4.50;;;13.10;57.50;;;;;;5014813;28;20042;-61
2021/04/21 00:44:49;;;;;;;7.38;4.40;;;13.10;57.50;;;;;;5015551;28;20084;-61
2021/04/21 00:47:39;;;;;;;9.68;4.75;;;13.10;57.70;;;;;;5014563;28;20038;-61
2021/04/21 00:50:11;;;;;;;7.43;4.53;;;13.00;57.70;;;;;;5014545;28;20026;-61
2021/04/21 00:52:52;;;;;;;9.38;4.88;;;13.00;57.80;;;;;;4997622;28;20421;-61
2021/04/21 00:55:32;;;;;;;8.85;5.30;;;12.90;58.00;;;;;;5015239;28;20018;-60
2021/04/21 00:58:17;;;;;;;11.30;5.60;;;12.90;58.20;;;;;;4997517;28;20064;-61
2021/04/21 01:00:47;;;;;;;10.07;5.07;;;12.90;58.30;;;;;;4997661;28;20022;-61
2021/04/21 01:03:21;;;;;;;10.65;5.03;;;12.80;58.50;;;;;;4996560;28;20041;-60
2021/04/21 01:05:52;;;;;;;5.78;4.25;;;12.70;58.60;;;;;;5015083;28;20478;-61
2021/04/21 01:08:24;;;;;;;7.78;4.35;;;12.70;58.80;;;;;;4997058;28;20022;-61
2021/04/21 01:11:11;;;;;;;7.50;4.10;;;12.70;58.90;;;;;;4995793;28;20394;-60
2021/04/21 01:13:49;;;;;;;9.75;4.43;;;12.60;59.00;;;;;;5014069;28;20389;-60
2021/04/21 01:16:24;;;;;;;8.15;4.25;;;12.60;59.10;;;;;;4996600;28;20022;-60
2021/04/21 01:18:53;;;;;;;6.68;4.32;;;12.50;59.10;;;;;;4991660;28;20030;-61
2021/04/21 01:21:43;;;;;;;7.80;4.20;;;12.50;59.30;;;;;;5011525;28;20454;-60
2021/04/21 01:24:20;;;;;;;21.73;5.20;;;12.50;59.50;;;;;;5013633;28;20042;-61
2021/04/21 01:26:50;;;;;;;8.85;5.15;;;12.40;59.50;;;;;;5013489;28;20026;-60
2021/04/21 01:29:25;;;;;;;7.60;4.43;;;12.40;59.50;;;;;;5014272;28;20044;-60
2021/04/21 01:31:58;;;;;;;8.23;5.25;;;12.30;59.40;;;;;;5013422;28;20101;-60
2021/04/21 01:34:26;;;;;;;11.20;4.90;;;12.30;59.40;;;;;;5011800;28;20382;-60
2021/04/21 01:36:53;;;;;;;7.05;4.93;;;12.30;59.40;;;;;;5014458;28;20462;-61
2021/04/21 01:39:19;;;;;;;8.40;5.22;;;12.30;59.50;;;;;;5013549;28;20028;-61
2021/04/21 01:41:51;;;;;;;6.80;5.00;;;12.30;59.50;;;;;;5014356;28;20084;-60
2021/04/21 01:44:45;;;;;;;7.32;4.80;;;12.30;59.80;;;;;;5014330;28;20022;-61
2021/04/21 01:47:17;;;;;;;9.10;4.65;;;12.20;59.10;;;;;;5011372;28;20375;-61
2021/04/21 01:50:02;;;;;;;10.23;4.38;;;12.20;59.10;;;;;;5014288;28;20042;-61
2021/04/21 01:52:48;;;;;;;6.20;4.45;;;12.20;59.00;;;;;;5013518;28;20374;-61
2021/04/21 01:55:50;;;;;;;8.73;5.00;;;12.10;58.90;;;;;;5014271;28;20109;-61
2021/04/21 01:58:39;;;;;;;10.02;5.28;;;12.10;59.10;;;;;;4980041;28;20496;-61
2021/04/21 02:01:31;;;;;;;8.95;5.57;;;12.10;59.30;;;;;;4972770;28;20041;-61
2021/04/21 02:04:21;;;;;;;9.07;4.85;;;12.00;59.40;;;;;;4983791;28;20057;-60
2021/04/21 02:06:52;;;;;;;8.75;5.80;;;12.00;59.50;;;;;;5000445;28;20034;-61
2021/04/21 02:09:36;;;;;;;7.97;5.05;;;12.00;59.50;;;;;;5013174;28;20421;-61
2021/04/21 02:12:22;;;;;;;9.57;4.80;;;12.00;59.50;;;;;;5011488;28;20041;-61
2021/04/21 02:15:02;;;;;;;8.27;5.35;;;11.90;59.50;;;;;;5012443;28;20038;-61
2021/04/21 02:17:43;;;;;;;9.38;5.00;;;11.90;59.60;;;;;;5013522;28;20038;-61
2021/04/21 02:20:29;;;;;;;10.35;5.55;;;11.90;59.30;;;;;;5012542;28;20053;-61
2021/04/21 02:23:25;;;;;;;10.45;5.40;;;11.80;59.30;;;;;;5012998;28;20088;-60
2021/04/21 02:25:57;;;;;;;13.50;5.75;;;11.80;59.40;;;;;;5013925;28;20026;-61
2021/04/21 02:28:28;;;;;;;9.10;6.30;;;11.80;59.50;;;;;;5012698;28;20084;-61
2021/04/21 02:31:24;;;;;;;13.27;6.68;;;11.80;59.70;;;;;;5013564;28;20029;-60
2021/04/21 02:34:13;;;;;;;10.43;5.95;;;11.70;59.90;;;;;;5003044;28;20042;-61
2021/04/21 02:36:56;;;;;;;18.80;6.55;;;11.70;60.00;;;;;;5013196;28;20053;-60
2021/04/21 02:39:42;;;;;;;10.00;6.05;;;11.70;60.00;;;;;;5012533;28;20378;-61
2021/04/21 02:42:15;;;;;;;10.75;5.57;;;11.60;60.20;;;;;;4971969;28;20042;-61
2021/04/21 02:45:18;;;;;;;14.85;6.70;;;11.60;60.40;;;;;;5013340;28;20132;-60
2021/04/21 02:47:57;;;;;;;10.15;5.88;;;11.60;60.60;;;;;;5000979;28;20113;-61
2021/04/21 02:51:04;;;;;;;12.38;6.10;;;11.60;60.70;;;;;;5012747;28;20038;-61
2021/04/21 02:53:44;;;;;;;11.40;6.70;;;11.60;60.80;;;;;;5003941;28;20049;-60
2021/04/21 02:56:47;;;;;;;11.05;6.05;;;11.50;60.70;;;;;;5012316;28;20026;-61
2021/04/21 02:59:34;;;;;;;15.80;6.90;;;11.50;60.80;;;;;;5013181;28;20041;-61
2021/04/21 03:02:10;;;;;;;12.13;6.63;;;11.50;60.80;;;;;;5012966;28;20038;-61
2021/04/21 03:04:54;;;;;;;12.82;6.53;;;11.40;60.90;;;;;;5012834;28;20168;-61
2021/04/21 03:07:30;;;;;;;;;;;11.40;61.00;;;;;;5013553;28;20041;-60
2021/04/21 03:10:04;;;;;;;12.27;6.65;;;11.40;60.90;;;;;;5012239;28;20361;-61
2021/04/21 03:12:33;;;;;;;13.52;6.47;;;11.30;60.80;;;;;;5012864;28;20406;-61
2021/04/21 03:15:09;;;;;;;13.30;6.78;;;11.30;61.10;;;;;;5012780;28;20157;-61
2021/04/21 03:17:35;;;;;;;12.73;7.18;;;11.30;61.50;;;;;;5012527;28;20018;-60
2021/04/21 03:20:12;;;;;;;12.25;6.70;;;11.30;61.60;;;;;;5012914;28;20397;-61
2021/04/21 03:22:39;;;;;;;14.90;6.65;;;11.20;61.80;;;;;;5012715;28;20539;-60
2021/04/21 03:25:20;;;;;;;15.90;7.07;;;11.20;61.70;;;;;;5012017;28;20031;-60
2021/04/21 03:27:51;;;;;;;13.48;6.35;;;11.20;62.00;;;;;;5012809;28;20080;-60
2021/04/21 03:30:20;;;;;;;9.90;5.95;;;11.20;62.10;;;;;;5011965;28;20491;-61
2021/04/21 03:32:51;;;;;;;11.35;6.30;;;11.20;62.10;;;;;;5012915;28;20030;-60
2021/04/21 03:35:19;;;;;;;11.63;5.82;;;11.20;62.30;;;;;;5012648;28;20037;-61
2021/04/21 03:38:07;;;;;;;12.88;6.38;;;11.20;62.30;;;;;;5012079;28;20034;-60
2021/04/21 03:40:33;;;;;;;9.30;6.05;;;11.10;63.00;;;;;;5012805;28;20026;-61
2021/04/21 03:43:00;;;;;;;9.60;5.82;;;11.10;62.40;;;;;;5012678;28;20046;-60
2021/04/21 03:45:27;;;;;;;12.70;6.38;;;11.10;62.60;;;;;;5011926;28;20035;-61
2021/04/21 03:47:57;;;;;;;11.77;6.10;;;11.00;62.70;;;;;;5012716;28;20073;-60
2021/04/21 03:50:24;;;;;;;10.15;6.28;;;11.00;62.80;;;;;;5014656;28;20033;-60
2021/04/21 03:53:01;;;;;;;10.75;6.72;;;11.00;62.80;;;;;;5015517;28;20034;-61
2021/04/21 03:55:29;;;;;;;10.20;6.63;;;11.00;63.20;;;;;;5016503;28;20041;-60
2021/04/21 03:57:58;;;;;;;11.68;6.68;;;11.00;63.40;;;;;;5016297;28;20030;-60
2021/04/21 04:00:25;;;;;;;10.00;6.50;;;11.00;63.60;;;;;;5015590;28;20029;-61
2021/04/21 04:02:56;;;;;;;11.23;6.68;;;10.90;63.70;;;;;;5016077;28;20038;-60
2021/04/21 04:05:33;;;;;;;11.40;5.80;;;10.90;64.10;;;;;;5015845;28;20021;-61
2021/04/21 04:08:06;;;;;;;10.35;6.63;;;10.90;64.60;;;;;;5016100;28;20030;-61
2021/04/21 04:10:35;;;;;;;10.57;7.03;;;10.90;64.00;;;;;;5016157;28;20026;-61
2021/04/21 04:13:06;;;;;;;13.30;6.22;;;10.90;64.10;;;;;;5015009;28;20061;-61
2021/04/21 04:15:33;;;;;;;12.20;6.35;;;10.90;64.20;;;;;;5015960;28;20117;-61
2021/04/21 04:18:05;;;;;;;11.00;6.32;;;10.90;64.50;;;;;;5016013;28;20088;-61
2021/04/21 04:20:33;;;;;;;12.13;5.93;;;10.90;64.50;;;;;;5015362;28;20105;-61
2021/04/21 04:23:05;;;;;;;8.82;5.93;;;10.80;64.50;;;;;;5015819;28;20057;-61
2021/04/21 04:25:32;;;;;;;11.57;6.35;;;10.80;64.40;;;;;;5015887;28;20040;-61
2021/04/21 04:27:59;;;;;;;8.85;5.88;;;10.80;64.30;;;;;;5014870;28;20374;-61
2021/04/21 04:30:26;;;;;;;11.02;5.72;;;10.80;64.40;;;;;;5015944;28;20026;-61
2021/04/21 04:32:54;;;;;;;11.32;5.60;;;10.80;64.50;;;;;;5015861;28;20034;-62
2021/04/21 04:35:20;;;;;;;11.07;6.70;;;10.80;64.60;;;;;;5014840;28;20073;-62
2021/04/21 04:37:47;;;;;;;12.00;6.40;;;10.70;64.80;;;;;;4998060;28;20432;-61
2021/04/21 04:40:14;;;;;;;11.32;5.72;;;10.70;65.00;;;;;;5015376;28;20484;-61
2021/04/21 04:42:41;;;;;;;14.75;6.70;;;10.70;65.20;;;;;;5014524;28;20042;-61
2021/04/21 04:45:09;;;;;;;11.82;6.07;;;10.70;65.40;;;;;;5015700;28;20034;-61
2021/04/21 04:47:43;;;;;;;10.23;5.68;;;10.70;65.60;;;;;;5014868;28;20037;-61
2021/04/21 04:50:15;;;;;;;10.52;6.05;;;10.60;65.70;;;;;;5015363;28;20057;-62
2021/04/21 04:52:43;;;;;;;9.80;5.63;;;10.70;65.70;;;;;;5015278;28;20052;-62
2021/04/21 04:55:12;;;;;;;11.82;5.72;;;10.60;65.50;;;;;;5014595;28;20117;-62
2021/04/21 04:57:43;;;;;;;8.68;5.50;;;10.60;65.60;;;;;;5014963;28;20362;-62
2021/04/21 05:00:11;;;;;;;9.70;6.20;;;10.60;65.50;;;;;;5015309;28;20088;-61
2021/04/21 05:02:57;;;;;;;9.38;6.10;;;10.60;65.60;;;;;;5013408;28;20081;-62
2021/04/21 05:05:23;;;;;;;11.63;6.78;;;10.50;65.40;;;;;;5015000;28;20022;-61
2021/04/21 05:08:05;;;;;;;13.35;6.70;;;10.50;65.40;;;;;;5014875;28;20040;-62
2021/04/21 05:10:47;;;;;;;9.10;5.72;;;10.50;65.80;;;;;;5014412;28;20404;-62
2021/04/21 05:13:20;;;;;;;12.68;5.88;;;10.50;65.70;;;;;;5014871;28;20393;-61
2021/04/21 05:15:51;;;;;;;11.25;6.85;;;10.50;65.60;;;;;;5013627;28;20397;-62
2021/04/21 05:18:26;;;;;;;25.73;7.25;;;10.40;65.90;;;;;;5014265;28;20041;-62
2021/04/21 05:21:29;;;;;;;12.95;7.63;;;10.50;66.30;;;;;;5011271;28;20026;-62
2021/04/21 05:24:06;;;;;;;13.27;8.45;;;10.40;66.70;;;;;;5007592;28;20038;-64
2021/04/21 05:26:54;;;;;;;14.30;8.20;;;10.40;67.00;;;;;;5008734;28;20034;-65
2021/04/21 05:29:44;;;;;;;13.48;8.38;;;10.40;67.50;;;;;;5006367;28;20062;-61
2021/04/21 05:32:50;;;;;;;20.38;9.98;;;10.40;67.40;;;;;;4996160;28;20030;-61
2021/04/21 05:35:55;;;;;;;20.83;11.27;;;10.40;67.70;;;;;;5008168;28;20109;-61
2021/04/21 05:38:36;;;;;;;;;;;10.40;68.00;;;;;;5011211;28;20477;-61
2021/04/21 05:41:58;;;;;;;27.52;12.38;;;10.50;67.40;;;;;;5012969;28;19909;-61
2021/04/21 05:45:03;;;;;;;30.98;14.63;;;10.50;68.30;;;;;;5011636;28;20493;-61
2021/04/21 05:47:31;;;;;;;;;;;10.40;69.10;;;;;;5012557;28;20385;-62
2021/04/21 05:50:32;;;;;;;31.27;16.10;;;10.40;68.30;;;;;;5013374;28;19948;-62
2021/04/21 05:53:19;;;;;;;36.20;17.40;;;10.50;69.40;;;;;;5009555;28;20026;-63
2021/04/21 05:55:59;;;;;;;31.90;16.88;;;10.50;70.60;;;;;;5012906;28;20045;-61
2021/04/21 05:58:37;;;;;;;41.13;21.30;;;10.40;71.30;;;;;;5012188;28;20481;-61
2021/04/21 06:01:21;;;;;;;37.97;19.73;;;10.50;72.40;;;;;;5012643;28;20160;-61
2021/04/21 06:03:51;;;;;;;41.38;18.90;;;10.50;72.90;;;;;;5011878;28;20038;-65
2021/04/21 06:06:17;;;;;;;37.03;16.67;;;10.50;73.20;;;;;;5011771;28;20021;-64
2021/04/21 06:08:43;;;;;;;44.72;20.08;;;10.50;73.00;;;;;;5012649;28;20056;-62
2021/04/21 06:11:30;;;;;;;37.20;17.00;;;10.50;73.60;;;;;;5010521;28;20073;-62
2021/04/21 06:13:58;;;;;;;47.67;21.38;;;10.60;74.00;;;;;;4994098;28;20037;-64
2021/04/21 06:16:25;;;;;;;28.02;12.80;;;10.60;74.30;;;;;;4993816;28;20117;-61
2021/04/21 06:18:57;;;;;;;31.27;13.13;;;10.60;74.00;;;;;;4999991;28;20033;-62
2021/04/21 06:21:25;;;;;;;45.03;19.92;;;10.70;73.80;;;;;;5007979;28;20033;-62
2021/04/21 06:23:55;;;;;;;51.75;24.13;;;10.70;74.40;;;;;;4998993;28;20530;-61
2021/04/21 06:26:23;;;;;;;54.72;26.83;;;10.70;76.90;;;;;;4995533;28;20083;-62
2021/04/21 06:29:09;;;;;;;36.63;16.85;;;10.60;77.30;;;;;;4998371;28;20030;-61
2021/04/21 06:31:42;;;;;;;24.88;10.65;;;10.60;76.20;;;;;;4998005;28;20030;-61
2021/04/21 06:34:10;;;;;;;46.05;19.80;;;10.70;76.00;;;;;;5007138;28;20105;-62
2021/04/21 06:36:42;;;;;;;43.30;17.48;;;10.60;76.10;;;;;;5012490;28;20029;-61
2021/04/21 06:39:09;;;;;;;45.45;20.17;;;10.60;76.60;;;;;;5012462;28;20038;-62
2021/04/21 06:41:35;;;;;;;45.65;17.55;;;10.60;77.20;;;;;;5010091;28;20076;-63
2021/04/21 06:44:02;;;;;;;48.00;19.85;;;10.60;77.60;;;;;;5011605;28;20037;-63
2021/04/21 06:46:28;;;;;;;38.42;17.90;;;10.60;77.80;;;;;;5011394;28;20513;-63
2021/04/21 06:48:56;;;;;;;43.72;18.25;;;10.60;78.20;;;;;;5011926;28;20037;-63
2021/04/21 06:51:24;;;;;;;39.40;18.13;;;10.60;78.00;;;;;;5012295;28;20033;-63
2021/04/21 06:53:52;;;;;;;39.97;16.83;;;10.60;78.50;;;;;;5012595;28;20037;-63
2021/04/21 06:56:32;;;;;;;35.22;12.50;;;10.60;79.70;;;;;;5011387;28;20029;-63
2021/04/21 06:58:59;;;;;;;40.78;18.40;;;10.50;79.10;;;;;;5012492;28;20042;-63
2021/04/21 07:01:28;;;;;;;38.67;20.58;;;10.50;79.60;;;;;;5011329;28;20105;-62
2021/04/21 07:04:10;;;;;;;36.00;19.55;;;10.60;80.50;;;;;;5012524;28;20038;-61
2021/04/21 07:06:37;;;;;;;29.63;13.05;;;10.50;80.50;;;;;;5007380;28;20041;-61
2021/04/21 07:09:14;;;;;;;29.13;15.60;;;10.60;79.70;;;;;;5010785;28;20057;-62
2021/04/21 07:11:41;;;;;;;30.95;11.68;;;10.60;79.80;;;;;;5003089;28;20092;-62
2021/04/21 07:14:12;;;;;;;33.38;14.77;;;10.60;79.70;;;;;;5011805;28;20087;-62
2021/04/21 07:16:41;;;;;;;24.77;11.93;;;10.50;80.00;;;;;;5010863;28;20052;-62
2021/04/21 07:19:11;;;;;;;24.38;10.90;;;10.60;80.00;;;;;;5011962;28;20034;-62
2021/04/21 07:21:40;;;;;;;20.10;8.45;;;10.60;79.90;;;;;;5011418;28;20077;-62
2021/04/21 07:24:08;;;;;;;22.83;8.20;;;10.60;79.60;;;;;;5011371;28;20048;-62
2021/04/21 07:26:35;;;;;;;20.58;10.63;;;10.60;79.80;;;;;;5015187;28;20124;-62
2021/04/21 07:29:02;;;;;;;25.63;8.43;;;10.60;80.00;;;;;;5016043;28;20076;-62
2021/04/21 07:31:28;;;;;;;16.38;8.07;;;10.70;80.00;;;;;;5014098;28;20030;-62
2021/04/21 07:33:54;;;;;;;19.85;10.13;;;10.70;80.00;;;;;;5015531;28;20030;-62
2021/04/21 07:36:28;;;;;;;10.13;6.30;;;10.70;80.10;;;;;;5015343;28;20180;-61
2021/04/21 07:39:04;;;;;;;14.82;4.90;;;10.80;80.60;;;;;;5015554;28;20481;-62
2021/04/21 07:41:38;;;;;;;15.40;5.65;;;10.80;79.80;;;;;;5015065;28;20041;-62
2021/04/21 07:44:06;;;;;;;11.68;6.15;;;10.80;79.70;;;;;;5014746;28;20450;-61
2021/04/21 07:46:32;;;;;;;16.10;7.13;;;10.80;79.70;;;;;;5015288;28;20038;-62
2021/04/21 07:48:58;;;;;;;14.55;6.45;;;10.80;79.70;;;;;;5015496;28;20073;-62
2021/04/21 07:51:27;;;;;;;13.18;6.00;;;10.80;79.60;;;;;;5014362;28;20024;-62
2021/04/21 07:54:05;;;;;;;10.85;4.35;;;10.80;79.70;;;;;;5015220;28;20029;-62
2021/04/21 07:56:35;;;;;;;11.02;4.43;;;10.90;79.60;;;;;;5006156;28;20037;-62
2021/04/21 07:59:20;;;;;;;7.85;3.15;;;10.90;79.50;;;;;;5014944;28;20044;-62
2021/04/21 08:01:46;;;;;;;8.43;3.08;;;10.90;79.50;;;;;;5007257;28;20026;-63
2021/04/21 08:04:25;;;;;;;7.45;2.30;;;11.00;79.30;;;;;;5015005;28;20113;-62
2021/04/21 08:06:55;;;;;;;5.65;2.70;;;11.00;79.00;;;;;;5014000;28;20099;-62
2021/04/21 08:09:22;;;;;;;9.25;1.83;;;11.00;78.90;;;;;;5013856;28;20529;-62
2021/04/21 08:12:13;;;;;;;6.72;2.90;;;11.10;78.90;;;;;;5013386;28;20064;-62
2021/04/21 08:14:50;;;;;;;2.80;1.52;;;11.00;78.70;;;;;;4996127;28;20029;-62
2021/04/21 08:17:18;;;;;;;9.57;2.72;;;11.10;78.70;;;;;;5014951;28;20037;-62
2021/04/21 08:19:52;;;;;;;8.27;2.00;;;11.10;78.40;;;;;;5013647;28;20061;-62
2021/04/21 08:22:30;;;;;;;5.22;1.90;;;11.10;78.30;;;;;;5014716;28;20634;-62
2021/04/21 08:24:58;;;;;;;8.07;2.10;;;11.10;78.20;;;;;;5014957;28;20057;-62
2021/04/21 08:27:27;;;;;;;2.30;1.38;;;11.10;77.90;;;;;;5014209;28;20025;-62
2021/04/21 08:29:52;;;;;;;4.88;1.98;;;11.10;77.80;;;;;;5014747;28;20036;-62
2021/04/21 08:32:22;;;;;;;5.25;1.63;;;11.10;77.70;;;;;;5014654;28;20034;-62
2021/04/21 08:34:51;;;;;;;4.68;1.50;;;11.10;77.60;;;;;;5014301;28;20038;-62
2021/04/21 08:37:18;;;;;;;2.65;1.60;;;11.20;77.80;;;;;;5013384;28;20112;-62
2021/04/21 08:39:44;;;;;;;5.95;1.85;;;11.20;77.60;;;;;;5014213;28;20080;-62
2021/04/21 08:42:12;;;;;;;6.78;2.08;;;11.20;77.50;;;;;;5014513;28;20041;-62
2021/04/21 08:44:42;;;;;;;9.25;1.45;;;11.20;77.30;;;;;;5015077;28;20038;-62
2021/04/21 08:47:13;;;;;;;6.60;1.63;;;11.20;76.80;;;;;;5013899;28;20034;-62
2021/04/21 08:49:39;;;;;;;2.20;1.13;;;11.20;77.20;;;;;;5008765;28;20069;-61
2021/04/21 08:52:06;;;;;;;9.52;2.13;;;11.20;77.10;;;;;;5013886;28;20527;-62
2021/04/21 08:54:32;;;;;;;8.43;1.38;;;11.20;77.40;;;;;;5012147;28;20124;-62
2021/04/21 08:56:59;;;;;;;7.00;1.95;;;11.30;77.20;;;;;;5013946;28;20049;-62
2021/04/21 08:59:25;;;;;;;6.60;1.25;;;11.30;76.90;;;;;;5013749;28;20050;-62
2021/04/21 09:01:51;;;;;;;11.20;2.17;;;11.30;77.20;;;;;;5013140;28;20500;-61
2021/04/21 09:04:18;;;;;;;6.30;1.48;;;11.40;76.70;;;;;;5013504;28;20033;-61
2021/04/21 09:06:46;;;;;;;10.57;1.90;;;11.40;76.00;;;;;;5011141;28;20049;-61
2021/04/21 09:09:17;;;;;;;6.18;2.72;;;11.40;76.00;;;;;;5012775;28;20057;-61
2021/04/21 09:11:43;;;;;;;4.18;1.10;;;11.40;75.40;;;;;;5012448;28;20112;-61
2021/04/21 09:14:09;;;;;;;5.00;1.27;;;11.40;75.40;;;;;;5013816;28;20034;-61
2021/04/21 09:16:35;;;;;;;4.03;1.27;;;11.50;75.20;;;;;;5012808;28;20140;-61
2021/04/21 09:19:19;;;;;;;6.32;1.33;;;11.50;75.60;;;;;;5013888;28;20076;-62
2021/04/21 09:21:45;;;;;;;14.43;2.83;;;11.50;75.30;;;;;;5012662;28;20033;-62
2021/04/21 09:24:27;;;;;;;14.18;2.15;;;11.60;74.60;;;;;;5012957;28;20033;-62
2021/04/21 09:26:53;;;;;;;10.20;1.60;;;11.60;73.30;;;;;;5013481;28;20079;-63
2021/04/21 09:29:33;;;;;;;14.18;1.67;;;11.70;74.30;;;;;;5012536;28;20034;-64
2021/04/21 09:32:11;;;;;;;5.82;1.38;;;11.70;74.60;;;;;;5013924;28;20043;-61
2021/04/21 09:34:37;;;;;;;10.07;1.58;;;11.70;75.30;;;;;;5013506;28;20557;-62
2021/04/21 09:37:03;;;;;;;4.82;1.30;;;11.80;74.90;;;;;;5012961;28;20101;-62
2021/04/21 09:39:37;;;;;;;1.55;0.75;;;11.80;74.60;;;;;;5013398;28;20074;-62
2021/04/21 09:42:08;;;;;;;3.25;1.20;;;11.90;74.30;;;;;;5013108;28;20108;-62
2021/04/21 09:44:46;;;;;;;9.85;1.73;;;11.90;74.70;;;;;;5012316;28;20026;-64
2021/04/21 09:47:13;;;;;;;10.52;1.63;;;12.00;73.40;;;;;;5012737;28;20060;-64
2021/04/21 09:49:40;;;;;;;6.30;1.48;;;12.00;73.70;;;;;;5012711;28;20367;-64
2021/04/21 09:52:12;;;;;;;5.90;1.15;;;12.00;73.60;;;;;;4995175;28;20477;-62
2021/04/21 09:54:46;;;;;;;4.45;1.25;;;12.00;73.80;;;;;;5012816;28;20026;-62
2021/04/21 09:57:15;;;;;;;8.27;1.35;;;12.10;74.00;;;;;;5011553;28;20068;-62
2021/04/21 09:59:41;;;;;;;7.22;1.45;;;12.10;74.00;;;;;;5013291;28;20029;-62
2021/04/21 10:02:37;;;;;;;4.53;0.98;;;12.10;73.60;;;;;;5012578;28;20038;-63
2021/04/21 10:05:26;;;;;;;7.32;1.45;;;12.20;72.80;;;;;;5012230;28;20112;-65
2021/04/21 10:08:16;;;;;;;9.60;1.92;;;12.30;72.70;;;;;;5012542;28;20026;-74
2021/04/21 10:10:44;;;;;;;2.60;1.35;;;12.40;73.10;;;;;;5004421;28;20547;-62
2021/04/21 10:13:16;;;;;;;8.15;1.67;;;12.40;72.70;;;;;;5011738;28;20038;-66
2021/04/21 10:15:42;;;;;;;3.53;1.45;;;12.40;72.50;;;;;;5012773;28;20022;-63
2021/04/21 10:18:11;;;;;;;7.93;1.58;;;12.50;72.30;;;;;;5012656;28;20561;-63
2021/04/21 10:20:36;;;;;;;11.38;2.22;;;12.50;72.10;;;;;;5013365;28;20097;-63
2021/04/21 10:23:04;;;;;;;14.15;2.03;;;12.60;72.00;;;;;;5012846;28;20464;-62
2021/04/21 10:25:30;;;;;;;9.43;1.90;;;12.60;72.00;;;;;;5011287;28;20081;-62
2021/04/21 10:27:56;;;;;;;5.78;1.70;;;12.60;71.40;;;;;;5012516;28;20085;-62
2021/04/21 10:30:22;;;;;;;11.25;1.88;;;12.70;71.70;;;;;;5012336;28;20113;-63
2021/04/21 10:32:48;;;;;;;11.27;1.70;;;12.70;71.70;;;;;;5011413;28;20485;-62
2021/04/21 10:35:14;;;;;;;5.72;1.35;;;12.70;71.60;;;;;;5011957;28;20474;-63
2021/04/21 10:37:41;;;;;;;6.68;1.35;;;12.80;72.00;;;;;;5012983;28;20037;-63
2021/04/21 10:40:11;;;;;;;12.88;2.08;;;12.80;72.00;;;;;;5011920;28;20056;-63
2021/04/21 10:42:51;;;;;;;12.70;1.42;;;12.80;72.10;;;;;;5012129;28;20440;-62
2021/04/21 10:45:20;;;;;;;19.38;3.50;;;12.80;72.30;;;;;;5004758;28;20022;-62
2021/04/21 10:47:48;;;;;;;6.15;1.77;;;12.80;71.80;;;;;;4993920;28;20033;-62
2021/04/21 10:50:32;;;;;;;8.90;1.40;;;12.90;71.80;;;;;;4992108;28;20022;-62
2021/04/21 10:52:58;;;;;;;11.57;2.72;;;12.90;71.60;;;;;;5006926;28;20144;-62
2021/04/21 10:55:36;;;;;;;13.82;2.03;;;12.90;70.30;;;;;;5007878;28;20041;-62
2021/04/21 10:58:09;;;;;;;6.95;1.58;;;12.90;70.30;;;;;;4993606;28;20508;-62
2021/04/21 11:00:37;;;;;;;13.65;1.98;;;12.90;70.70;;;;;;5008809;28;20038;-62
2021/04/21 11:03:08;;;;;;;6.63;1.67;;;12.90;70.60;;;;;;5012306;28;20050;-62
2021/04/21 11:05:40;;;;;;;13.73;2.85;;;13.00;70.70;;;;;;5000786;28;20400;-64
2021/04/21 11:08:15;;;;;;;10.27;2.13;;;13.10;70.40;;;;;;4988929;28;20095;-63
2021/04/21 11:10:45;;;;;;;7.88;1.65;;;13.00;69.40;;;;;;5008544;28;20072;-62
2021/04/21 11:13:30;;;;;;;9.63;1.75;;;13.10;68.70;;;;;;5011289;28;20037;-62
2021/04/21 11:15:56;;;;;;;5.38;1.00;;;13.10;68.30;;;;;;5011036;28;20113;-62
2021/04/21 11:18:27;;;;;;;7.65;1.45;;;13.10;68.80;;;;;;5011488;28;20124;-62
2021/04/21 11:21:00;;;;;;;6.50;1.45;;;13.20;69.00;;;;;;4993081;28;20034;-63
2021/04/21 11:23:46;;;;;;;6.35;1.48;;;13.20;68.80;;;;;;5010126;28;20440;-62
2021/04/21 11:26:23;;;;;;;12.20;2.70;;;13.20;68.00;;;;;;5011364;28;20026;-63
2021/04/21 11:29:18;;;;;;;6.20;1.67;;;13.30;67.80;;;;;;4993292;28;20037;-63
2021/04/21 11:31:48;;;;;;;13.27;1.98;;;13.30;67.50;;;;;;5010740;28;20072;-63
2021/04/21 11:34:29;;;;;;;7.47;1.98;;;13.30;68.30;;;;;;5010456;28;20033;-64
2021/04/21 11:37:11;;;;;;;14.55;2.30;;;13.30;67.10;;;;;;5011087;28;20026;-64
2021/04/21 11:39:46;;;;;;;11.43;2.08;;;13.40;65.00;;;;;;5011808;28;20087;-65
2021/04/21 11:42:24;;;;;;;7.30;1.75;;;13.40;65.80;;;;;;5011122;28;20121;-65
2021/04/21 11:44:50;;;;;;;7.18;1.45;;;13.40;66.70;;;;;;5008520;28;20448;-65
2021/04/21 11:47:31;;;;;;;8.43;1.73;;;13.50;67.70;;;;;;5011175;28;20022;-65
2021/04/21 11:50:00;;;;;;;7.72;1.65;;;13.50;67.00;;;;;;5010893;28;20034;-65
2021/04/21 11:52:42;;;;;;;11.75;2.17;;;13.60;66.60;;;;;;5011331;28;20080;-63
2021/04/21 11:55:08;;;;;;;7.35;1.92;;;13.60;65.40;;;;;;5010573;28;20057;-63
2021/04/21 11:57:38;;;;;;;18.05;2.63;;;13.60;66.30;;;;;;5010604;28;20061;-62
2021/04/21 12:00:08;;;;;;;9.95;2.50;;;13.60;65.70;;;;;;5011262;28;20531;-63
2021/04/21 12:02:37;;;;;;;5.30;1.50;;;13.70;66.50;;;;;;5011419;28;20041;-63
2021/04/21 12:05:03;;;;;;;20.13;3.63;;;13.70;67.70;;;;;;5010788;28;20022;-63
2021/04/21 12:07:29;;;;;;;7.60;1.50;;;13.70;66.30;;;;;;5011228;28;20057;-63
2021/04/21 12:10:01;;;;;;;15.50;2.17;;;13.70;65.00;;;;;;5011571;28;20022;-62
2021/04/21 12:12:28;;;;;;;13.38;3.50;;;13.70;64.60;;;;;;5013803;28;20148;-66
2021/04/21 12:15:06;;;;;;;13.65;2.65;;;13.70;64.60;;;;;;5015061;28;20064;-62
2021/04/21 12:17:33;;;;;;;7.50;1.88;;;13.70;64.00;;;;;;5015235;28;20065;-62
2021/04/21 12:20:00;;;;;;;10.95;1.80;;;13.70;64.40;;;;;;5014064;28;20087;-62
2021/04/21 12:22:42;;;;;;;6.82;2.20;;;13.70;63.50;;;;;;5014854;28;20063;-62
2021/04/21 12:25:09;;;;;;;4.95;1.50;;;13.70;63.60;;;;;;5014458;28;20740;-62
2021/04/21 12:27:36;;;;;;;8.75;2.50;;;13.70;64.80;;;;;;5015103;28;20053;-62
2021/04/21 12:30:15;;;;;;;16.30;2.42;;;13.70;63.40;;;;;;5015131;28;20034;-62
2021/04/21 12:32:41;;;;;;;13.57;2.28;;;13.70;63.00;;;;;;5001700;28;20030;-62
2021/04/21 12:35:09;;;;;;;6.93;1.58;;;13.70;64.10;;;;;;5015131;28;20513;-62
2021/04/21 12:37:37;;;;;;;13.93;2.33;;;13.80;63.50;;;;;;5014589;28;20030;-62
2021/04/21 12:40:24;;;;;;;8.32;2.05;;;13.70;60.60;;;;;;5014561;28;20033;-62
2021/04/21 12:42:51;;;;;;;7.50;2.22;;;13.80;62.60;;;;;;5015085;28;20142;-62
2021/04/21 12:45:27;;;;;;;9.63;2.13;;;13.80;62.60;;;;;;5014697;28;20036;-62
2021/04/21 12:47:55;;;;;;;11.27;1.90;;;13.80;63.40;;;;;;5014024;28;20075;-63
2021/04/21 12:50:31;;;;;;;7.15;2.17;;;13.70;63.90;;;;;;5013924;28;20025;-64
2021/04/21 12:53:13;;;;;;;3.22;1.13;;;13.80;64.60;;;;;;5011947;28;20029;-62
2021/04/21 12:55:39;;;;;;;16.92;2.75;;;13.70;65.50;;;;;;5002129;28;20040;-62
2021/04/21 12:58:05;;;;;;;17.58;2.47;;;13.70;64.20;;;;;;4998339;28;20022;-62
2021/04/21 13:00:31;;;;;;;7.93;2.08;;;13.60;64.60;;;;;;4996136;28;20030;-61
2021/04/21 13:02:57;;;;;;;14.43;2.70;;;13.60;64.00;;;;;;4997588;28;20053;-62
2021/04/21 13:05:49;;;;;;;4.30;1.23;;;13.70;64.80;;;;;;4999423;28;20025;-62
2021/04/21 13:08:23;;;;;;;6.60;1.80;;;13.70;65.60;;;;;;4998077;28;20478;-62
2021/04/21 13:10:50;;;;;;;12.05;3.40;;;13.70;65.10;;;;;;5005151;28;20042;-63
2021/04/21 13:13:28;;;;;;;3.17;1.33;;;13.80;63.70;;;;;;5004711;28;20030;-68